createdAt,value
2022-08-07T00:00:39.795Z,102759.06
2022-08-07T00:03:08.778Z,102736.38
2022-08-07T00:05:36.276Z,102753.88
2022-08-07T00:08:05.647Z,102719.81
2022-08-07T00:10:35.042Z,102740.78
2022-08-07T00:13:17.397Z,102742.56
2022-08-07T00:15:51.907Z,102732.94
2022-08-07T00:18:23.964Z,102719.00
2022-08-07T00:20:56.751Z,102730.34
2022-08-07T00:23:24.209Z,102731.22
2022-08-07T00:25:58.867Z,102734.75
2022-08-07T00:28:33.224Z,102723.38
2022-08-07T00:31:05.701Z,102726.00
2022-08-07T00:33:33.787Z,102719.00
2022-08-07T00:36:01.138Z,102733.88
2022-08-07T00:38:31.359Z,102724.25
2022-08-07T00:40:59.953Z,102722.53
2022-08-07T00:44:00.495Z,102722.50
2022-08-07T00:46:13.424Z,102723.38
2022-08-07T00:48:42.342Z,102721.63
2022-08-07T00:51:09.715Z,102721.63
2022-08-07T00:53:38.844Z,102718.13
2022-08-07T00:56:17.701Z,102719.88
2022-08-07T00:58:47.363Z,102718.13
2022-08-07T01:01:18.152Z,102722.50
2022-08-07T01:03:56.411Z,102717.25
2022-08-07T01:06:27.242Z,102713.75
2022-08-07T01:08:55.688Z,102712.88
2022-08-07T01:12:27.578Z,102719.00
2022-08-07T01:14:10.225Z,102725.09
2022-08-07T01:16:37.507Z,102694.50
2022-08-07T01:19:18.396Z,102712.84
2022-08-07T01:21:53.159Z,102691.81
2022-08-07T01:24:22.291Z,102725.94
2022-08-07T01:26:54.177Z,102729.38
2022-08-07T01:29:24.206Z,102725.88
2022-08-07T01:31:55.344Z,102716.25
2022-08-07T01:34:31.189Z,102730.22
2022-08-07T01:37:00.811Z,102726.72
2022-08-07T01:39:41.412Z,102717.94
2022-08-07T01:42:38.292Z,102724.94
2022-08-07T01:45:09.806Z,102720.56
2022-08-07T01:48:19.912Z,102716.22
2022-08-07T01:50:28.838Z,102679.47
2022-08-07T01:52:58.717Z,102716.16
2022-08-07T01:55:28.314Z,102679.44
2022-08-07T01:58:05.553Z,102695.16
2022-08-07T02:00:49.927Z,102716.09
2022-08-07T02:03:26.499Z,102681.13
2022-08-07T02:06:08.928Z,102682.03
2022-08-07T02:08:57.171Z,102713.47
2022-08-07T02:11:30.897Z,102698.63
2022-08-07T02:14:35.634Z,102708.25
2022-08-07T02:17:06.080Z,102704.75
2022-08-07T02:20:07.547Z,102681.13
2022-08-07T02:22:25.713Z,102669.78
2022-08-07T02:24:56.036Z,102664.53
2022-08-07T02:27:25.302Z,102709.09
2022-08-07T02:29:55.019Z,102705.59
2022-08-07T02:32:29.971Z,102710.78
2022-08-07T02:35:00.804Z,102691.56
2022-08-07T02:37:36.081Z,102692.41
2022-08-07T02:40:29.894Z,102691.53
2022-08-07T02:42:59.201Z,102692.41
2022-08-07T02:45:58.980Z,102658.28
2022-08-07T02:48:17.103Z,102689.75
2022-08-07T02:50:48.480Z,102682.72
2022-08-07T02:53:38.509Z,102655.56
2022-08-07T02:56:21.021Z,102655.56
2022-08-07T02:58:51.348Z,102689.66
2022-08-07T03:01:35.066Z,102696.63
2022-08-07T03:04:13.067Z,102704.47
2022-08-07T03:06:48.164Z,102699.13
2022-08-07T03:09:41.864Z,102699.13
2022-08-07T03:12:05.475Z,102706.97
2022-08-07T03:14:36.010Z,102690.34
2022-08-07T03:17:04.730Z,102699.09
2022-08-07T03:19:36.771Z,102692.97
2022-08-07T03:22:06.509Z,102692.94
2022-08-07T03:24:34.779Z,102698.16
2022-08-07T03:27:06.145Z,102699.00
2022-08-07T03:29:49.632Z,102705.91
2022-08-07T03:32:24.642Z,102694.56
2022-08-07T03:35:16.874Z,102689.28
2022-08-07T03:37:46.299Z,102692.78
2022-08-07T03:40:22.159Z,102692.72
2022-08-07T03:42:50.400Z,102689.22
2022-08-07T03:45:30.413Z,102682.22
2022-08-07T03:48:09.856Z,102678.69
2022-08-07T03:50:38.638Z,102694.38
2022-08-07T03:53:06.939Z,102686.50
2022-08-07T03:55:53.045Z,102684.78
2022-08-07T03:59:05.370Z,102684.72
2022-08-07T04:01:14.751Z,102680.34
2022-08-07T04:03:53.780Z,102675.06
2022-08-07T04:06:37.698Z,102671.53
2022-08-07T04:09:15.867Z,102679.41
2022-08-07T04:12:26.249Z,102679.41
2022-08-07T04:14:38.542Z,102675.88
2022-08-07T04:17:20.287Z,102675.88
2022-08-07T04:19:59.369Z,102680.22
2022-08-07T04:22:29.629Z,102673.25
2022-08-07T04:25:01.969Z,102675.84
2022-08-07T04:27:35.452Z,102674.94
2022-08-07T04:30:13.412Z,102669.72
2022-08-07T04:33:00.523Z,102663.56
2022-08-07T04:35:35.056Z,102671.41
2022-08-07T04:38:09.078Z,102660.97
2022-08-07T04:40:52.439Z,102667.06
2022-08-07T04:44:09.965Z,102668.81
2022-08-07T04:47:04.675Z,102674.00
2022-08-07T04:49:38.765Z,102631.13
2022-08-07T04:52:34.912Z,102667.97
2022-08-07T04:58:13.694Z,102674.88
2022-08-07T04:59:15.911Z,102658.25
2022-08-07T05:01:36.497Z,102638.13
2022-08-07T05:04:17.859Z,102674.88
2022-08-07T05:06:58.365Z,102671.41
2022-08-07T05:09:46.157Z,102681.84
2022-08-07T05:12:26.901Z,102687.97
2022-08-07T05:15:04.923Z,102682.69
2022-08-07T05:17:52.018Z,102698.41
2022-08-07T05:20:26.087Z,102695.81
2022-08-07T05:23:02.089Z,102652.94
2022-08-07T05:25:54.447Z,102694.06
2022-08-07T05:28:23.332Z,102705.41
2022-08-07T05:30:58.022Z,102710.72
2022-08-07T05:33:28.699Z,102718.59
2022-08-07T05:35:57.328Z,102707.28
2022-08-07T05:38:59.634Z,102704.69
2022-08-07T05:41:16.023Z,102712.59
2022-08-07T05:44:11.845Z,102681.97
2022-08-07T05:46:46.068Z,102722.25
2022-08-07T05:49:22.780Z,102723.16
2022-08-07T05:51:51.914Z,102724.06
2022-08-07T05:54:30.927Z,102731.06
2022-08-07T05:57:09.746Z,102727.66
2022-08-07T05:59:39.041Z,102728.59
2022-08-07T06:02:28.840Z,102726.03
2022-08-07T06:05:03.470Z,102693.66
2022-08-07T06:08:13.682Z,102740.06
2022-08-07T06:10:20.317Z,102735.78
2022-08-07T06:12:48.182Z,102728.88
2022-08-07T06:15:19.721Z,102735.03
2022-08-07T06:17:53.314Z,102741.19
2022-08-07T06:20:25.507Z,102719.41
2022-08-07T06:23:24.853Z,102746.47
2022-08-07T06:25:57.097Z,102731.72
2022-08-07T06:28:27.327Z,102727.38
2022-08-07T06:30:56.402Z,102719.56
2022-08-07T06:33:26.301Z,102728.34
2022-08-07T06:36:13.533Z,102729.25
2022-08-07T06:38:59.290Z,102735.41
2022-08-07T06:42:02.284Z,102741.50
2022-08-07T06:44:57.381Z,102710.09
2022-08-07T06:47:26.884Z,102743.34
2022-08-07T06:49:58.703Z,102707.50
2022-08-07T06:52:36.589Z,102732.03
2022-08-07T06:55:31.625Z,102742.53
2022-08-07T06:58:04.472Z,102758.28
2022-08-07T07:00:38.573Z,102746.94
2022-08-07T07:03:08.647Z,102743.47
2022-08-07T07:06:02.385Z,102742.59
2022-08-07T07:08:29.905Z,102742.59
2022-08-07T07:11:01.204Z,102743.47
2022-08-07T07:13:57.439Z,102742.59
2022-08-07T07:16:34.041Z,102738.22
2022-08-07T07:19:56.553Z,102735.59
2022-08-07T07:22:05.014Z,102730.38
2022-08-07T07:24:57.016Z,102724.22
2022-08-07T07:27:35.648Z,102740.81
2022-08-07T07:30:32.355Z,102739.00
2022-08-07T07:33:06.153Z,102670.00
2022-08-07T07:35:54.402Z,102723.22
2022-08-07T07:38:23.970Z,102728.41
2022-08-07T07:40:51.687Z,102727.50
2022-08-07T07:43:27.709Z,102740.53
2022-08-07T07:46:53.445Z,102726.50
2022-08-07T07:49:00.035Z,102722.06
2022-08-07T07:51:58.216Z,102722.88
2022-08-07T07:54:25.300Z,102731.50
2022-08-07T07:56:55.143Z,102732.25
2022-08-07T07:59:51.711Z,102699.00
2022-08-07T08:02:22.633Z,102737.28
2022-08-07T08:05:11.494Z,102716.13
2022-08-07T08:07:59.903Z,102722.09
2022-08-07T08:10:38.095Z,102709.78
2022-08-07T08:13:10.489Z,102686.03
2022-08-07T08:15:58.596Z,102709.41
2022-08-07T08:18:27.793Z,102717.94
2022-08-07T08:20:57.091Z,102724.84
2022-08-07T08:23:24.326Z,102717.75
2022-08-07T08:25:57.403Z,102701.13
2022-08-07T08:28:38.225Z,102715.75
2022-08-07T08:31:14.639Z,102684.25
2022-08-07T08:33:49.422Z,102720.72
2022-08-07T08:36:19.104Z,102691.00
2022-08-07T08:38:55.811Z,102684.69
2022-08-07T08:41:31.445Z,102722.88
2022-08-07T08:44:29.613Z,102682.56
2022-08-07T08:47:25.680Z,102710.25
2022-08-07T08:50:28.624Z,102679.53
2022-08-07T08:53:12.588Z,102700.91
2022-08-07T08:55:53.348Z,102676.44
2022-08-07T08:58:50.599Z,102698.63
2022-08-07T09:01:40.084Z,102700.09
2022-08-07T09:04:16.951Z,102697.31
2022-08-07T09:07:23.026Z,102700.66
2022-08-07T09:10:10.558Z,102663.78
2022-08-07T09:12:53.730Z,102696.53
2022-08-07T09:16:25.296Z,102692.63
2022-08-07T09:18:58.153Z,102690.66
2022-08-07T09:22:09.682Z,102681.69
2022-08-07T09:24:59.748Z,102667.78
2022-08-07T09:27:54.585Z,102664.16
2022-08-07T09:30:27.892Z,102687.28
2022-08-07T09:33:24.520Z,102683.31
2022-08-07T09:36:18.528Z,102681.88
2022-08-07T09:39:06.334Z,102675.81
2022-08-07T09:42:02.921Z,102667.91
2022-08-07T09:47:49.986Z,102674.41
2022-08-07T09:48:02.486Z,102671.81
2022-08-07T09:50:53.676Z,102667.59
2022-08-07T09:53:22.467Z,102667.50
2022-08-07T09:56:03.326Z,102663.03
2022-08-07T09:59:05.271Z,102673.28
2022-08-07T10:01:51.739Z,102670.16
2022-08-07T10:04:47.698Z,102665.22
2022-08-07T10:07:53.103Z,102669.91
2022-08-07T10:11:16.481Z,102627.97
2022-08-07T10:14:01.475Z,102659.78
2022-08-07T10:16:49.735Z,102659.84
2022-08-07T10:19:37.747Z,102647.91
2022-08-07T10:22:45.363Z,102648.56
2022-08-07T10:25:24.011Z,102653.03
2022-08-07T10:28:41.399Z,102642.72
2022-08-07T10:31:38.469Z,102645.19
2022-08-07T10:34:32.147Z,102642.88
2022-08-07T10:37:48.576Z,102640.63
2022-08-07T10:40:30.096Z,102638.69
2022-08-07T10:43:29.748Z,102634.97
2022-08-07T10:46:11.788Z,102600.50
2022-08-07T10:49:24.545Z,102631.25
2022-08-07T10:52:13.832Z,102599.28
2022-08-07T10:55:36.919Z,102630.06
2022-08-07T10:58:52.029Z,102623.75
2022-08-07T11:01:51.717Z,102619.84
2022-08-07T11:04:34.553Z,102627.16
2022-08-07T11:08:00.284Z,102603.31
2022-08-07T11:10:24.301Z,102593.97
2022-08-07T11:13:42.362Z,102620.94
2022-08-07T11:15:59.650Z,102603.13
2022-08-07T11:18:56.260Z,102600.94
2022-08-07T11:21:40.823Z,102601.53
2022-08-07T11:24:21.964Z,102569.56
2022-08-07T11:27:01.914Z,102574.19
2022-08-07T11:29:48.343Z,102597.34
2022-08-07T11:32:43.343Z,102599.16
2022-08-07T11:35:26.728Z,102559.81
2022-08-07T11:37:57.975Z,102592.91
2022-08-07T11:40:56.122Z,102575.31
2022-08-07T11:43:29.731Z,102517.84
2022-08-07T11:46:18.236Z,102573.44
2022-08-07T11:49:50.390Z,102541.16
2022-08-07T11:52:28.945Z,102560.03
2022-08-07T11:55:12.921Z,102562.25
2022-08-07T11:58:00.504Z,102545.06
2022-08-07T12:00:40.366Z,102530.13
2022-08-07T12:03:41.376Z,102557.56
2022-08-07T12:06:39.920Z,102553.41
2022-08-07T12:09:37.511Z,102549.09
2022-08-07T12:12:12.106Z,102548.31
2022-08-07T12:14:56.259Z,102517.03
2022-08-07T12:17:39.205Z,102546.25
2022-08-07T12:20:30.862Z,102522.56
2022-08-07T12:24:05.069Z,102537.78
2022-08-07T12:26:35.502Z,102539.91
2022-08-07T12:29:38.376Z,102540.22
2022-08-07T12:32:20.737Z,102536.47
2022-08-07T12:34:55.657Z,102546.63
2022-08-07T12:37:28.115Z,102508.47
2022-08-07T12:40:36.245Z,102523.28
2022-08-07T12:43:03.392Z,102529.13
2022-08-07T12:46:26.475Z,102528.56
2022-08-07T12:49:51.188Z,102520.41
2022-08-07T12:52:41.458Z,102488.69
2022-08-07T12:55:40.665Z,102507.22
2022-08-07T12:58:13.037Z,102515.63
2022-08-07T13:01:00.348Z,102511.09
2022-08-07T13:03:59.106Z,102514.00
2022-08-07T13:06:54.437Z,102517.81
2022-08-07T13:10:21.958Z,102484.78
2022-08-07T13:13:10.061Z,102505.44
2022-08-07T13:15:47.063Z,102499.06
2022-08-07T13:18:50.738Z,102497.25
2022-08-07T13:21:23.593Z,102502.47
2022-08-07T13:24:18.529Z,102465.88
2022-08-07T13:26:53.894Z,102497.81
2022-08-07T13:29:27.097Z,102494.34
2022-08-07T13:32:31.428Z,102492.78
2022-08-07T13:35:11.607Z,102492.97
2022-08-07T13:38:01.600Z,102484.97
2022-08-07T13:40:42.738Z,102458.66
2022-08-07T13:43:16.052Z,102439.44
2022-08-07T13:46:11.893Z,102469.47
2022-08-07T13:48:38.614Z,102471.75
2022-08-07T13:51:27.102Z,102472.75
2022-08-07T13:54:01.975Z,102479.84
2022-08-07T13:56:35.926Z,102478.00
2022-08-07T13:59:28.382Z,102446.69
2022-08-07T14:02:04.456Z,102481.38
2022-08-07T14:04:35.648Z,102458.72
2022-08-07T14:07:09.728Z,102464.31
2022-08-07T14:10:01.912Z,102438.56
2022-08-07T14:12:55.587Z,102448.91
2022-08-07T14:15:43.683Z,102466.31
2022-08-07T14:18:28.963Z,102457.75
2022-08-07T14:21:11.690Z,102459.88
2022-08-07T14:24:02.016Z,102463.19
2022-08-07T14:26:52.959Z,102433.84
2022-08-07T14:30:07.430Z,102453.84
2022-08-07T14:32:13.431Z,102461.34
2022-08-07T14:34:46.442Z,102434.66
2022-08-07T14:37:16.834Z,102448.16
2022-08-07T14:40:17.170Z,102460.19
2022-08-07T14:42:33.939Z,102441.31
2022-08-07T14:45:21.977Z,102425.66
2022-08-07T14:47:51.353Z,102434.63
2022-08-07T14:50:26.631Z,102440.69
2022-08-07T14:52:55.518Z,102446.66
2022-08-07T14:55:27.530Z,102424.75
2022-08-07T14:57:59.433Z,102443.00
2022-08-07T15:00:31.318Z,102427.28
2022-08-07T15:02:59.320Z,102436.19
2022-08-07T15:05:30.368Z,102416.31
2022-08-07T15:07:59.880Z,102436.66
2022-08-07T15:13:20.138Z,102414.91
2022-08-07T15:15:52.536Z,102427.25
2022-08-07T15:18:34.896Z,102430.91
2022-08-07T15:21:44.321Z,102381.59
2022-08-07T15:27:08.220Z,102411.59
2022-08-07T15:30:06.818Z,102384.03
2022-08-07T15:32:39.512Z,102404.84
2022-08-07T15:35:17.826Z,102411.19
2022-08-07T15:40:38.437Z,102399.31
2022-08-07T15:52:02.361Z,102381.84
2022-08-07T15:54:39.433Z,102354.50
2022-08-07T15:57:10.803Z,102362.28
2022-08-07T15:59:57.337Z,102384.34
2022-08-07T16:02:46.680Z,102372.84
2022-08-07T16:05:16.537Z,102355.03
2022-08-07T16:08:30.846Z,102363.50
2022-08-07T16:10:36.824Z,102369.78
2022-08-07T16:13:17.587Z,102376.56
2022-08-07T16:16:06.868Z,102363.63
2022-08-07T16:19:03.493Z,102369.13
2022-08-07T16:22:05.532Z,102369.91
2022-08-07T16:24:52.310Z,102338.56
2022-08-07T16:27:40.550Z,102370.91
2022-08-07T16:30:30.580Z,102364.19
2022-08-07T16:34:01.373Z,102365.09
2022-08-07T16:36:31.100Z,102366.41
2022-08-07T16:39:40.298Z,102367.81
2022-08-07T16:42:27.980Z,102348.66
2022-08-07T16:46:21.192Z,102368.75
2022-08-07T16:48:27.735Z,102360.94
2022-08-07T16:51:57.701Z,102341.91
2022-08-07T16:54:38.221Z,102359.25
2022-08-07T16:58:02.060Z,102357.75
2022-08-07T17:00:29.451Z,102359.78
2022-08-07T17:03:17.434Z,102352.81
2022-08-07T17:06:35.887Z,102344.31
2022-08-07T17:10:07.888Z,102361.44
2022-08-07T17:12:35.875Z,102331.56
2022-08-07T17:15:19.365Z,102342.34
2022-08-07T17:17:48.661Z,102353.78
2022-08-07T17:20:33.069Z,102352.94
2022-08-07T17:23:14.640Z,102342.66
2022-08-07T17:26:23.528Z,102353.00
2022-08-07T17:30:16.084Z,102339.22
2022-08-07T17:32:35.206Z,102317.97
2022-08-07T17:35:55.215Z,102324.56
2022-08-07T17:38:52.716Z,102304.81
2022-08-07T17:42:02.121Z,102279.41
2022-08-07T17:44:42.793Z,102326.38
2022-08-07T17:47:42.211Z,102323.59
2022-08-07T17:50:21.189Z,102321.00
2022-08-07T17:53:09.536Z,102321.44
2022-08-07T17:56:15.363Z,102321.28
2022-08-07T17:58:56.772Z,102325.28
2022-08-07T18:01:36.765Z,102327.09
2022-08-07T18:04:31.172Z,102327.38
2022-08-07T18:07:34.094Z,102330.28
2022-08-07T18:11:17.253Z,102332.97
2022-08-07T18:14:01.650Z,102306.47
2022-08-07T18:16:57.883Z,102308.72
2022-08-07T18:21:11.869Z,102342.19
2022-08-07T18:22:38.854Z,102343.41
2022-08-07T18:25:19.309Z,102344.63
2022-08-07T18:28:35.283Z,102342.19
2022-08-07T18:31:18.447Z,102345.75
2022-08-07T18:34:37.467Z,102347.88
2022-08-07T18:38:58.569Z,102343.34
2022-08-07T18:40:53.828Z,102357.00
2022-08-07T18:43:37.296Z,102350.88
2022-08-07T18:46:24.480Z,102342.88
2022-08-07T18:50:32.458Z,102353.06
2022-08-07T18:52:54.325Z,102359.25
2022-08-07T18:55:43.192Z,102362.72
2022-08-07T18:58:40.443Z,102354.59
2022-08-07T19:02:34.075Z,102323.44
2022-08-07T19:04:25.078Z,102363.03
2022-08-07T19:07:08.286Z,102371.50
2022-08-07T19:09:56.659Z,102375.72
2022-08-07T19:12:48.626Z,102374.53
2022-08-07T19:16:03.109Z,102378.59
2022-08-07T19:18:34.136Z,102379.16
2022-08-07T19:21:45.057Z,102371.84
2022-08-07T19:24:30.787Z,102345.75
2022-08-07T19:28:30.536Z,102385.97
2022-08-07T19:31:03.259Z,102344.13
2022-08-07T19:32:46.461Z,102388.78
2022-08-07T19:35:22.521Z,102390.22
2022-08-07T19:37:57.611Z,102389.97
2022-08-07T19:40:33.283Z,102384.53
2022-08-07T19:43:21.784Z,102395.72
2022-08-07T19:46:10.472Z,102401.63
2022-08-07T19:48:42.225Z,102370.97
2022-08-07T19:51:19.935Z,102407.78
2022-08-07T19:54:35.359Z,102386.81
2022-08-07T19:57:59.878Z,102384.72
2022-08-07T19:59:41.589Z,102395.75
2022-08-07T20:02:19.098Z,102416.94
2022-08-07T20:04:50.088Z,102406.06
2022-08-07T20:07:23.416Z,102424.94
2022-08-07T20:10:34.350Z,102422.75
2022-08-07T20:12:45.150Z,102424.25
2022-08-07T20:15:22.338Z,102390.06
2022-08-07T20:18:01.668Z,102428.81
2022-08-07T20:20:32.664Z,102420.59
2022-08-07T20:23:23.446Z,102388.09
2022-08-07T20:25:55.579Z,102419.72
2022-08-07T20:28:29.684Z,102420.97
2022-08-07T20:30:59.018Z,102430.97
2022-08-07T20:33:36.596Z,102392.25
2022-08-07T20:36:07.834Z,102423.81
2022-08-07T20:38:59.569Z,102426.78
2022-08-07T20:41:28.061Z,102397.72
2022-08-07T20:44:02.622Z,102397.25
2022-08-07T20:46:34.594Z,102436.63
2022-08-07T20:49:58.244Z,102441.38
2022-08-07T20:51:58.940Z,102445.25
2022-08-07T20:54:29.824Z,102438.47
2022-08-07T20:57:04.170Z,102411.88
2022-08-07T21:00:06.736Z,102430.28
2022-08-07T21:02:27.750Z,102456.78
2022-08-07T21:04:55.124Z,102449.94
2022-08-07T21:07:27.007Z,102447.50
2022-08-07T21:10:00.174Z,102451.28
2022-08-07T21:12:31.579Z,102458.53
2022-08-07T21:15:02.854Z,102455.16
2022-08-07T21:18:03.203Z,102457.84
2022-08-07T21:20:26.548Z,102458.81
2022-08-07T21:22:58.388Z,102466.81
2022-08-07T21:25:38.770Z,102457.13
2022-08-07T21:28:50.249Z,102459.13
2022-08-07T21:31:10.887Z,102464.41
2022-08-07T21:33:54.666Z,102463.66
2022-08-07T21:36:34.425Z,102469.91
2022-08-07T21:39:47.714Z,102452.59
2022-08-07T21:42:48.727Z,102469.38
2022-08-07T21:46:07.611Z,102474.81
2022-08-07T21:48:41.527Z,102461.78
2022-08-07T21:51:27.710Z,102471.47
2022-08-07T21:54:25.684Z,102495.31
2022-08-07T21:57:31.460Z,102488.19
2022-08-07T22:00:22.113Z,102491.72
2022-08-07T22:03:08.579Z,102453.66
2022-08-07T22:05:49.119Z,102497.16
2022-08-07T22:08:20.992Z,102460.78
2022-08-07T22:10:53.585Z,102498.16
2022-08-07T22:13:24.190Z,102495.50
2022-08-07T22:16:40.038Z,102513.16
2022-08-07T22:19:11.998Z,102508.78
2022-08-07T22:22:05.157Z,102514.94
2022-08-07T22:24:50.111Z,102516.78
2022-08-07T22:27:21.241Z,102451.53
2022-08-07T22:30:12.375Z,102527.31
2022-08-07T22:33:06.552Z,102524.75
2022-08-07T22:35:57.978Z,102528.34
2022-08-07T22:38:42.030Z,102530.06
2022-08-07T22:41:22.050Z,102489.34
2022-08-07T22:44:12.910Z,102508.53
2022-08-07T22:47:23.511Z,102531.09
2022-08-07T22:50:33.025Z,102537.25
2022-08-07T22:54:06.429Z,102547.91
2022-08-07T22:56:37.587Z,102507.13
2022-08-07T22:59:13.319Z,102544.53
2022-08-07T23:02:19.845Z,102548.16
2022-08-07T23:06:06.948Z,102486.53
2022-08-07T23:08:24.533Z,102516.25
2022-08-07T23:11:18.328Z,102555.53
2022-08-07T23:14:14.677Z,102551.19
2022-08-07T23:17:20.474Z,102560.19
2022-08-07T23:20:21.697Z,102554.13
2022-08-07T23:24:05.824Z,102556.94
2022-08-07T23:26:25.014Z,102548.31
2022-08-07T23:30:36.284Z,102534.56
2022-08-07T23:34:24.043Z,102522.47
2022-08-07T23:35:43.440Z,102549.50
2022-08-07T23:38:42.820Z,102547.06
2022-08-07T23:42:04.381Z,102554.16
2022-08-07T23:45:03.049Z,102556.00
2022-08-07T23:47:47.856Z,102563.13
2022-08-07T23:50:17.805Z,102554.44
2022-08-07T23:53:15.382Z,102557.19
2022-08-07T23:55:52.123Z,102552.09
2022-08-07T23:58:37.598Z,102521.72
